TimeCDT,TemperatureF,Dew PointF,Humidity,Sea Level PressureIn,VisibilityMPH,Wind Direction,Wind SpeedMPH,Gust SpeedMPH,PrecipitationIn,Events,Conditions,WindDirDegrees,DateUTC
1:15 AM,41.0,37.4,87,29.83,5.0,North,19.6,27.6,N/A,,Mostly Cloudy,360,2013-03-16 06:15:00
1:32 AM,41.0,37.4,87,29.83,4.0,North,13.8,21.9,N/A,,Overcast,350,2013-03-16 06:32:00
1:53 AM,39.9,37.0,89,29.83,5.0,North,9.2,-,N/A,,Overcast,360,2013-03-16 06:53:00
2:53 AM,39.9,36.0,86,29.85,6.0,North,17.3,21.9,N/A,,Overcast,10,2013-03-16 07:53:00
3:53 AM,39.0,35.1,86,29.90,6.0,North,16.1,23.0,N/A,,Overcast,360,2013-03-16 08:53:00
4:45 AM,39.2,35.6,87,29.91,6.0,North,17.3,23.0,N/A,,Haze,360,2013-03-16 09:45:00
4:53 AM,39.9,35.1,83,29.91,6.0,North,11.5,23.0,N/A,,Haze,350,2013-03-16 09:53:00
5:53 AM,39.0,35.1,86,29.96,4.0,North,15.0,23.0,N/A,,Overcast,350,2013-03-16 10:53:00
6:53 AM,37.0,32.0,82,29.97,7.0,North,18.4,25.3,N/A,,Overcast,10,2013-03-16 11:53:00
7:53 AM,36.0,32.0,86,30.02,7.0,North,18.4,26.5,N/A,,Overcast,360,2013-03-16 12:53:00
8:45 AM,35.6,30.2,81,30.02,6.0,North,17.3,23.0,N/A,,Overcast,360,2013-03-16 13:45:00
8:53 AM,35.1,30.9,85,30.05,6.0,North,15.0,23.0,N/A,,Overcast,360,2013-03-16 13:53:00
9:10 AM,35.6,30.2,81,30.03,10.0,North,12.7,23.0,N/A,,Overcast,360,2013-03-16 14:10:00
9:53 AM,36.0,28.9,76,30.02,10.0,NNE,23.0,29.9,N/A,,Overcast,30,2013-03-16 14:53:00
10:18 AM,35.6,30.2,81,30.04,10.0,North,16.1,-,N/A,,Overcast,10,2013-03-16 15:18:00
10:53 AM,36.0,28.9,76,30.06,10.0,NNE,20.7,26.5,N/A,,Overcast,20,2013-03-16 15:53:00
11:02 AM,35.6,28.4,75,30.06,10.0,NNE,16.1,24.2,N/A,,Overcast,20,2013-03-16 16:02:00
11:53 AM,37.0,28.0,70,30.08,10.0,North,17.3,21.9,N/A,,Overcast,10,2013-03-16 16:53:00
12:53 PM,37.0,28.0,70,30.10,10.0,North,13.8,18.4,N/A,,Overcast,360,2013-03-16 17:53:00
1:53 PM,37.0,28.0,70,30.11,10.0,North,12.7,-,N/A,,Overcast,10,2013-03-16 18:53:00
2:53 PM,37.9,27.0,65,30.08,10.0,NE,13.8,-,N/A,,Overcast,40,2013-03-16 19:53:00
3:53 PM,37.0,26.1,65,30.07,10.0,NNE,12.7,21.9,N/A,,Overcast,20,2013-03-16 20:53:00
4:53 PM,36.0,26.1,67,30.09,10.0,NE,12.7,-,N/A,,Overcast,40,2013-03-16 21:53:00
5:53 PM,36.0,26.1,67,30.09,10.0,NE,9.2,-,N/A,,Overcast,40,2013-03-16 22:53:00
6:53 PM,35.1,25.0,67,30.09,10.0,NNE,15.0,-,N/A,,Overcast,20,2013-03-16 23:53:00
7:53 PM,34.0,25.0,70,30.11,10.0,NNE,9.2,-,N/A,,Overcast,30,2013-03-17 00:53:00
8:53 PM,33.1,25.0,72,30.14,10.0,North,6.9,-,N/A,,Partly Cloudy,10,2013-03-17 01:53:00
9:53 PM,33.1,24.1,70,30.15,10.0,North,8.1,-,N/A,,Mostly Cloudy,10,2013-03-17 02:53:00
10:53 PM,32.0,24.1,73,30.17,10.0,North,12.7,-,N/A,,Overcast,10,2013-03-17 03:53:00
11:53 PM,30.9,23.0,72,30.15,10.0,NNE,10.4,-,N/A,,Overcast,20,2013-03-17 04:53:00